createdAt,value
2023-05-01T00:01:57.945Z,81.84
2023-05-01T00:04:24.096Z,81.72
2023-05-01T00:06:50.339Z,81.53
2023-05-01T00:09:16.447Z,81.50
2023-05-01T00:11:42.560Z,79.53
2023-05-01T00:14:08.656Z,78.89
2023-05-01T00:16:35.418Z,80.66
2023-05-01T00:19:02.618Z,81.33
2023-05-01T00:21:28.881Z,83.84
2023-05-01T00:23:55.073Z,82.60
2023-05-01T00:26:21.183Z,83.94
2023-05-01T00:28:47.274Z,84.03
2023-05-01T00:31:13.424Z,83.92
2023-05-01T00:33:39.885Z,83.91
2023-05-01T00:36:06.011Z,87.91
2023-05-01T00:38:32.111Z,86.79
2023-05-01T00:40:58.191Z,84.04
2023-05-01T00:43:24.306Z,86.22
2023-05-01T00:45:50.449Z,84.38
2023-05-01T00:48:16.646Z,85.71
2023-05-01T00:50:44.061Z,87.17
2023-05-01T00:53:10.690Z,86.68
2023-05-01T00:55:38.231Z,85.88
2023-05-01T00:58:04.351Z,86.20
2023-05-01T01:00:30.463Z,89.36
2023-05-01T01:02:56.662Z,88.17
2023-05-01T01:05:25.777Z,87.32
2023-05-01T01:08:10.542Z,88.66
2023-05-01T01:10:52.478Z,91.05
2023-05-01T01:13:28.068Z,89.34
2023-05-01T01:16:06.074Z,88.76
2023-05-01T01:18:34.953Z,89.52
2023-05-01T01:21:08.182Z,89.31
2023-05-01T01:24:11.776Z,87.86
2023-05-01T01:27:10.733Z,94.00
2023-05-01T01:29:39.870Z,90.81
2023-05-01T01:32:34.037Z,92.92
2023-05-01T01:35:04.035Z,91.51
2023-05-01T01:37:42.693Z,91.58
2023-05-01T01:40:31.805Z,93.68
2023-05-01T01:43:07.211Z,94.48
2023-05-01T01:45:40.380Z,94.03
2023-05-01T01:48:09.279Z,96.10
2023-05-01T01:50:37.491Z,95.36
2023-05-01T01:53:05.122Z,95.34
2023-05-01T01:55:32.647Z,95.44
2023-05-01T01:57:59.084Z,96.07
2023-05-01T02:00:25.466Z,96.14
2023-05-01T02:02:51.872Z,96.47
2023-05-01T02:05:19.576Z,95.53
2023-05-01T02:07:48.168Z,94.93
2023-05-01T02:10:15.409Z,96.72
2023-05-01T02:12:42.387Z,96.14
2023-05-01T02:15:10.188Z,95.25
2023-05-01T02:17:37.697Z,94.94
2023-05-01T02:20:04.840Z,94.72
2023-05-01T02:22:31.252Z,95.07
2023-05-01T02:24:59.097Z,95.99
2023-05-01T02:27:44.978Z,96.89
2023-05-01T02:30:11.717Z,96.30
2023-05-01T02:32:37.936Z,97.39
2023-05-01T02:35:04.386Z,98.20
2023-05-01T02:37:31.565Z,97.19
2023-05-01T02:39:59.091Z,96.46
2023-05-01T02:42:26.122Z,95.78
2023-05-01T02:45:02.218Z,96.76
2023-05-01T02:47:30.023Z,95.42
2023-05-01T02:49:56.746Z,95.21
2023-05-01T02:52:23.098Z,96.66
2023-05-01T02:54:49.365Z,95.46
2023-05-01T02:57:17.336Z,95.28
2023-05-01T02:59:43.587Z,95.57
2023-05-01T03:02:09.660Z,96.68
2023-05-01T03:04:35.893Z,95.19
2023-05-01T03:07:03.936Z,96.72
2023-05-01T03:09:33.334Z,95.77
2023-05-01T03:12:00.375Z,95.06
2023-05-01T03:14:27.884Z,95.39
2023-05-01T03:16:55.222Z,94.54
2023-05-01T03:19:21.343Z,95.26
2023-05-01T03:21:47.413Z,94.59
2023-05-01T03:24:13.450Z,96.55
2023-05-01T03:26:39.627Z,95.90
2023-05-01T03:29:05.754Z,96.14
2023-05-01T03:31:31.828Z,97.11
2023-05-01T03:33:58.340Z,97.27
2023-05-01T03:36:24.573Z,97.21
2023-05-01T03:38:50.650Z,100.00
2023-05-01T03:41:17.010Z,97.25
2023-05-01T03:43:43.119Z,96.70
2023-05-01T03:46:09.238Z,97.72
2023-05-01T03:48:35.416Z,97.07
2023-05-01T03:51:01.484Z,96.85
2023-05-01T03:53:27.590Z,96.19
2023-05-01T03:55:53.636Z,96.85
2023-05-01T03:58:21.507Z,96.67
2023-05-01T04:00:47.628Z,96.61
2023-05-01T04:03:13.942Z,97.78
2023-05-01T04:05:40.059Z,96.77
2023-05-01T04:08:06.550Z,96.65
2023-05-01T04:10:32.658Z,96.01
2023-05-01T04:12:58.742Z,97.88
2023-05-01T04:15:24.819Z,98.55
2023-05-01T04:17:51.694Z,98.63
2023-05-01T04:20:18.788Z,96.31
2023-05-01T04:22:44.849Z,100.00
2023-05-01T04:25:10.926Z,100.00
2023-05-01T04:27:37.015Z,100.00
2023-05-01T04:30:03.759Z,100.00
2023-05-01T04:32:29.839Z,97.87
2023-05-01T04:34:55.937Z,98.12
2023-05-01T04:37:21.981Z,98.17
2023-05-01T04:39:48.118Z,98.54
2023-05-01T04:42:14.200Z,98.35
2023-05-01T04:44:40.328Z,99.02
2023-05-01T04:47:07.024Z,98.44
2023-05-01T04:49:33.377Z,99.65
2023-05-01T04:51:59.416Z,99.33
2023-05-01T04:54:25.541Z,99.33
2023-05-01T04:56:51.650Z,99.35
2023-05-01T04:59:17.809Z,99.99
2023-05-01T05:01:44.064Z,98.79
2023-05-01T05:04:10.600Z,97.32
2023-05-01T05:06:36.812Z,98.54
2023-05-01T05:09:03.019Z,98.81
2023-05-01T05:11:29.125Z,98.65
2023-05-01T05:13:55.258Z,98.03
2023-05-01T05:16:21.340Z,96.60
2023-05-01T05:18:47.440Z,96.95
2023-05-01T05:21:13.585Z,97.04
2023-05-01T05:23:40.134Z,97.86
2023-05-01T05:26:06.189Z,97.88
2023-05-01T05:28:32.353Z,99.54
2023-05-01T05:30:58.441Z,99.06
2023-05-01T05:33:24.588Z,100.00
2023-05-01T05:35:51.641Z,99.22
2023-05-01T05:38:18.170Z,96.68
2023-05-01T05:40:44.250Z,95.07
2023-05-01T05:43:10.317Z,92.83
2023-05-01T05:45:37.180Z,91.59
2023-05-01T05:48:03.859Z,89.08
2023-05-01T05:50:29.996Z,89.55
2023-05-01T05:52:56.187Z,90.68
2023-05-01T05:55:22.309Z,88.60
2023-05-01T05:57:48.350Z,87.93
2023-05-01T06:00:15.126Z,86.32
2023-05-01T06:02:41.290Z,84.27
2023-05-01T06:05:09.563Z,84.74
2023-05-01T06:07:36.622Z,81.92
2023-05-01T06:10:05.869Z,80.50
2023-05-01T06:12:32.100Z,83.68
2023-05-01T06:14:59.230Z,86.78
2023-05-01T06:17:25.322Z,86.60
2023-05-01T06:19:55.383Z,85.44
2023-05-01T06:22:21.681Z,92.12
2023-05-01T06:24:47.730Z,88.33
2023-05-01T06:27:13.802Z,93.97
2023-05-01T06:29:40.060Z,91.53
2023-05-01T06:32:06.107Z,96.42
2023-05-01T06:34:32.176Z,92.81
2023-05-01T06:36:58.267Z,91.24
2023-05-01T06:39:24.366Z,89.41
2023-05-01T06:41:50.433Z,89.95
2023-05-01T06:44:16.493Z,90.05
2023-05-01T06:46:42.610Z,89.50
2023-05-01T06:49:08.699Z,94.01
2023-05-01T06:51:34.837Z,97.40
2023-05-01T06:54:01.476Z,91.98
2023-05-01T06:56:27.539Z,93.22
2023-05-01T06:58:53.625Z,89.81
2023-05-01T07:01:19.890Z,85.00
2023-05-01T07:03:45.954Z,83.75
2023-05-01T07:06:12.108Z,81.02
2023-05-01T07:08:38.196Z,82.33
2023-05-01T07:11:04.403Z,80.75
2023-05-01T07:13:30.558Z,80.17
2023-05-01T07:15:56.641Z,78.70
2023-05-01T07:18:22.757Z,77.18
2023-05-01T07:20:49.680Z,73.67
2023-05-01T07:23:15.832Z,75.12
2023-05-01T07:25:44.496Z,75.16
2023-05-01T07:28:10.877Z,71.98
2023-05-01T07:30:37.166Z,70.16
2023-05-01T07:33:05.141Z,69.57
2023-05-01T07:35:32.172Z,67.58
2023-05-01T07:37:58.285Z,66.50
2023-05-01T07:40:24.504Z,66.96
2023-05-01T07:42:53.851Z,65.36
2023-05-01T07:45:20.638Z,64.47
2023-05-01T07:47:46.761Z,64.65
2023-05-01T07:50:12.848Z,63.74
2023-05-01T07:52:39.074Z,63.81
2023-05-01T07:55:05.745Z,61.37
2023-05-01T07:57:34.606Z,64.66
2023-05-01T08:00:00.677Z,62.29
2023-05-01T08:02:26.924Z,59.57
2023-05-01T08:04:53.252Z,58.77
2023-05-01T08:07:19.351Z,59.77
2023-05-01T08:09:45.933Z,59.25
2023-05-01T08:12:13.338Z,59.89
2023-05-01T08:14:39.559Z,61.47
2023-05-01T08:17:05.954Z,59.49
2023-05-01T08:19:32.820Z,58.93
2023-05-01T08:21:58.879Z,58.30
2023-05-01T08:24:25.146Z,59.16
2023-05-01T08:26:51.256Z,57.28
2023-05-01T08:29:17.336Z,57.19
2023-05-01T08:31:44.264Z,57.05
2023-05-01T08:34:10.476Z,55.67
2023-05-01T08:36:36.709Z,54.93
2023-05-01T08:39:03.231Z,53.93
2023-05-01T08:41:30.556Z,54.69
2023-05-01T08:44:00.575Z,54.33
2023-05-01T08:46:40.543Z,54.43
2023-05-01T08:49:08.797Z,53.87
2023-05-01T08:51:36.018Z,54.62
2023-05-01T08:54:03.106Z,53.77
2023-05-01T08:56:30.538Z,53.05
2023-05-01T08:58:57.962Z,53.94
2023-05-01T09:01:24.415Z,55.10
2023-05-01T09:03:52.211Z,53.88
2023-05-01T09:06:18.856Z,54.34
2023-05-01T09:08:44.926Z,53.59
2023-05-01T09:11:11.294Z,53.18
2023-05-01T09:13:38.003Z,53.25
2023-05-01T09:16:04.877Z,53.35
2023-05-01T09:18:30.963Z,53.21
2023-05-01T09:20:57.729Z,52.22
2023-05-01T09:23:23.838Z,51.99
2023-05-01T09:25:51.898Z,51.30
2023-05-01T09:28:18.153Z,50.89
2023-05-01T09:30:44.249Z,51.31
2023-05-01T09:33:12.238Z,51.28
2023-05-01T09:35:55.479Z,49.80
2023-05-01T09:38:23.464Z,50.11
2023-05-01T09:40:50.211Z,50.42
2023-05-01T09:43:26.439Z,48.92
2023-05-01T09:46:08.599Z,48.80
2023-05-01T09:48:35.918Z,50.71
2023-05-01T09:51:28.229Z,51.06
2023-05-01T09:53:59.008Z,50.46
2023-05-01T09:56:26.731Z,50.86
2023-05-01T09:58:54.210Z,49.44
2023-05-01T10:01:40.054Z,49.29
2023-05-01T10:04:08.068Z,49.18
2023-05-01T10:06:35.959Z,49.60
2023-05-01T10:09:03.364Z,48.72
2023-05-01T10:11:30.378Z,48.00
2023-05-01T10:14:09.638Z,48.74
2023-05-01T10:16:37.358Z,48.45
2023-05-01T10:19:04.666Z,49.14
2023-05-01T10:21:35.623Z,48.33
2023-05-01T10:24:05.838Z,47.57
2023-05-01T10:26:35.686Z,46.74
2023-05-01T10:29:02.662Z,46.50
2023-05-01T10:31:31.920Z,46.64
2023-05-01T10:34:01.016Z,47.15
2023-05-01T10:36:34.413Z,47.22
2023-05-01T10:39:00.511Z,46.81
2023-05-01T10:41:54.382Z,47.56
2023-05-01T10:44:22.793Z,47.09
2023-05-01T10:46:49.026Z,47.27
2023-05-01T10:49:15.536Z,47.28
2023-05-01T10:51:57.761Z,46.78
2023-05-01T10:54:24.904Z,47.36
2023-05-01T10:56:51.044Z,47.16
2023-05-01T10:59:17.405Z,46.64
2023-05-01T11:01:45.026Z,46.47
2023-05-01T11:04:23.801Z,46.66
2023-05-01T11:07:05.118Z,46.10
2023-05-01T11:09:41.177Z,46.55
2023-05-01T11:12:11.539Z,46.34
2023-05-01T11:14:53.091Z,45.95
2023-05-01T11:17:41.025Z,45.02
2023-05-01T11:20:34.050Z,45.45
2023-05-01T11:23:00.397Z,45.33
2023-05-01T11:25:30.309Z,44.58
2023-05-01T11:27:57.488Z,44.94
2023-05-01T11:30:23.857Z,44.56
2023-05-01T11:32:51.324Z,45.02
2023-05-01T11:35:22.390Z,44.49
2023-05-01T11:37:50.491Z,44.10
2023-05-01T11:40:26.577Z,43.74
2023-05-01T11:43:06.272Z,45.03
2023-05-01T11:45:36.063Z,45.91
2023-05-01T11:48:04.358Z,45.07
2023-05-01T11:50:35.762Z,45.14
2023-05-01T11:53:03.452Z,43.92
2023-05-01T11:55:33.794Z,43.82
2023-05-01T11:58:01.226Z,44.26
2023-05-01T12:00:29.691Z,44.92
2023-05-01T12:02:57.818Z,43.66
2023-05-01T12:05:25.625Z,43.92
2023-05-01T12:07:51.876Z,44.33
2023-05-01T12:10:18.077Z,43.96
2023-05-01T12:12:44.188Z,43.16
2023-05-01T12:15:10.772Z,43.44
2023-05-01T12:17:36.922Z,42.56
2023-05-01T12:20:03.757Z,42.01
2023-05-01T12:22:29.858Z,42.47
2023-05-01T12:24:56.356Z,43.14
2023-05-01T12:27:22.718Z,42.42
2023-05-01T12:29:48.900Z,42.48
2023-05-01T12:32:16.242Z,41.95
2023-05-01T12:34:42.596Z,40.96
2023-05-01T12:37:09.543Z,41.80
2023-05-01T12:39:37.878Z,41.64
2023-05-01T12:42:11.211Z,40.96
2023-05-01T12:44:37.278Z,41.13
2023-05-01T12:47:04.287Z,42.69
2023-05-01T12:49:31.741Z,41.98
2023-05-01T12:52:00.173Z,41.13
2023-05-01T12:54:26.393Z,40.82
2023-05-01T12:56:52.879Z,39.61
2023-05-01T12:59:23.904Z,40.68
2023-05-01T13:02:02.896Z,40.12
2023-05-01T13:04:29.300Z,40.49
2023-05-01T13:06:56.492Z,40.23
2023-05-01T13:09:23.560Z,38.75
2023-05-01T13:12:07.105Z,38.33
2023-05-01T13:14:38.091Z,38.48
2023-05-01T13:17:09.519Z,38.42
2023-05-01T13:19:36.126Z,39.50
2023-05-01T13:22:02.358Z,39.57
2023-05-01T13:24:42.898Z,39.67
2023-05-01T13:27:09.122Z,40.16
2023-05-01T13:29:35.644Z,39.49
2023-05-01T13:32:03.799Z,40.19
2023-05-01T13:34:32.322Z,40.23
2023-05-01T13:36:59.293Z,39.64
2023-05-01T13:39:25.418Z,39.19
2023-05-01T13:41:52.120Z,38.92
2023-05-01T13:44:19.303Z,39.21
2023-05-01T13:46:45.905Z,38.38
2023-05-01T13:49:12.120Z,38.70
2023-05-01T13:51:43.185Z,38.90
2023-05-01T13:54:10.232Z,38.90
2023-05-01T13:56:38.521Z,38.87
2023-05-01T13:59:05.715Z,39.05
2023-05-01T14:01:38.664Z,39.39
2023-05-01T14:04:09.107Z,39.43
2023-05-01T14:06:36.189Z,39.67
2023-05-01T14:09:03.306Z,39.55
2023-05-01T14:11:29.972Z,39.60
2023-05-01T14:13:58.390Z,40.51
2023-05-01T14:16:26.180Z,39.84
2023-05-01T14:18:56.056Z,39.73
2023-05-01T14:21:23.759Z,40.45
2023-05-01T14:23:53.736Z,40.35
2023-05-01T14:26:21.088Z,42.12
2023-05-01T14:28:47.469Z,40.62
2023-05-01T14:31:27.691Z,40.40
2023-05-01T14:33:59.240Z,40.23
2023-05-01T14:36:27.559Z,40.74
2023-05-01T14:38:57.243Z,41.61
2023-05-01T14:41:23.467Z,41.99
2023-05-01T14:43:52.435Z,41.00
2023-05-01T14:46:50.559Z,40.31
2023-05-01T14:49:19.299Z,41.39
2023-05-01T14:51:45.477Z,41.45
2023-05-01T14:54:12.171Z,41.43
2023-05-01T14:56:38.252Z,40.05
2023-05-01T14:59:04.371Z,39.84
2023-05-01T15:01:30.608Z,39.78
2023-05-01T15:03:56.898Z,39.37
2023-05-01T15:06:24.074Z,41.00
2023-05-01T15:08:50.195Z,40.93
2023-05-01T15:11:18.057Z,40.33
2023-05-01T15:13:45.378Z,41.00
2023-05-01T15:16:11.639Z,40.33
2023-05-01T15:18:38.355Z,40.65
2023-05-01T15:21:04.615Z,40.09
2023-05-01T15:23:31.105Z,40.08
2023-05-01T15:25:57.653Z,41.14
2023-05-01T15:28:24.263Z,40.86
2023-05-01T15:30:53.385Z,40.55
2023-05-01T15:33:19.702Z,40.40
2023-05-01T15:35:46.551Z,40.13
2023-05-01T15:38:12.652Z,40.92
2023-05-01T15:40:38.764Z,41.10
2023-05-01T15:43:05.779Z,40.48
2023-05-01T15:45:32.292Z,41.65
2023-05-01T15:47:58.695Z,41.20
2023-05-01T15:50:25.072Z,41.12
2023-05-01T15:52:51.758Z,41.96
2023-05-01T15:55:18.626Z,40.53
2023-05-01T15:57:46.392Z,40.08
2023-05-01T16:00:13.935Z,40.74
2023-05-01T16:02:41.878Z,40.35
2023-05-01T16:05:08.799Z,40.78
2023-05-01T16:07:35.201Z,39.81
2023-05-01T16:10:01.718Z,39.92
2023-05-01T16:12:28.257Z,40.38
2023-05-01T16:14:54.369Z,40.86
2023-05-01T16:17:20.726Z,41.49
2023-05-01T16:19:47.107Z,40.81
2023-05-01T16:22:16.311Z,39.86
2023-05-01T16:24:42.493Z,39.88
2023-05-01T16:27:12.552Z,40.09
2023-05-01T16:29:38.707Z,40.23
2023-05-01T16:32:05.308Z,41.30
2023-05-01T16:34:31.486Z,40.56
2023-05-01T16:36:57.566Z,40.84
2023-05-01T16:39:23.652Z,40.87
2023-05-01T16:41:52.080Z,42.18
2023-05-01T16:44:19.253Z,42.90
2023-05-01T16:46:52.183Z,42.67
2023-05-01T16:49:18.874Z,44.25
2023-05-01T16:51:45.166Z,44.16
2023-05-01T16:54:11.258Z,44.08
2023-05-01T16:56:37.782Z,44.15
2023-05-01T16:59:04.058Z,43.36
2023-05-01T17:01:30.268Z,43.68
2023-05-01T17:03:56.423Z,43.51
2023-05-01T17:06:22.602Z,44.90
2023-05-01T17:08:48.839Z,44.47
2023-05-01T17:11:15.000Z,44.81
2023-05-01T17:13:41.180Z,44.79
2023-05-01T17:16:07.652Z,45.28
2023-05-01T17:18:34.165Z,45.18
2023-05-01T17:21:00.276Z,45.48
2023-05-01T17:23:29.023Z,44.60
2023-05-01T17:25:55.719Z,45.31
2023-05-01T17:28:23.241Z,44.62
2023-05-01T17:30:49.630Z,45.18
2023-05-01T17:33:15.704Z,44.86
2023-05-01T17:35:41.942Z,44.91
2023-05-01T17:38:08.004Z,45.20
2023-05-01T17:40:34.129Z,45.50
2023-05-01T17:43:00.481Z,46.00
2023-05-01T17:45:26.593Z,45.24
2023-05-01T17:47:53.005Z,45.23
2023-05-01T17:50:19.428Z,45.50
2023-05-01T17:52:45.561Z,45.84
2023-05-01T17:55:13.319Z,46.00
2023-05-01T17:57:40.464Z,45.91
2023-05-01T18:00:08.039Z,46.48
2023-05-01T18:02:34.741Z,46.35
2023-05-01T18:05:01.455Z,46.44
2023-05-01T18:07:30.000Z,47.55
2023-05-01T18:09:57.234Z,47.73
2023-05-01T18:12:23.905Z,47.69
2023-05-01T18:14:51.240Z,49.16
2023-05-01T18:17:18.859Z,49.82
2023-05-01T18:19:45.016Z,50.96
2023-05-01T18:22:11.070Z,51.41
2023-05-01T18:24:37.161Z,51.81
2023-05-01T18:27:03.220Z,52.39
2023-05-01T18:29:29.346Z,52.42
2023-05-01T18:31:55.567Z,52.26
2023-05-01T18:34:21.703Z,52.97
2023-05-01T18:36:51.288Z,53.26
2023-05-01T18:39:21.107Z,53.12
2023-05-01T18:41:48.139Z,52.97
2023-05-01T18:44:14.886Z,53.77
2023-05-01T18:46:41.259Z,54.31
2023-05-01T18:49:07.354Z,54.74
2023-05-01T18:51:34.323Z,55.65
2023-05-01T18:54:01.663Z,55.54
2023-05-01T18:56:29.112Z,57.81
2023-05-01T18:58:55.297Z,56.80
2023-05-01T19:01:22.552Z,56.16
2023-05-01T19:03:48.880Z,55.10
2023-05-01T19:06:15.035Z,57.07
2023-05-01T19:08:41.114Z,57.10
2023-05-01T19:11:07.217Z,56.91
2023-05-01T19:13:33.397Z,57.96
2023-05-01T19:15:59.531Z,58.01
2023-05-01T19:18:25.698Z,58.17
2023-05-01T19:20:51.789Z,59.15
2023-05-01T19:23:17.871Z,58.93
2023-05-01T19:25:43.953Z,59.61
2023-05-01T19:28:10.093Z,59.06
2023-05-01T19:30:36.326Z,59.09
2023-05-01T19:33:03.254Z,58.25
2023-05-01T19:35:29.353Z,58.96
2023-05-01T19:37:58.784Z,59.04
2023-05-01T19:40:24.842Z,58.60
2023-05-01T19:42:50.983Z,57.75
2023-05-01T19:45:17.916Z,56.58
2023-05-01T19:47:45.130Z,57.10
2023-05-01T19:50:11.253Z,56.75
2023-05-01T19:52:37.383Z,56.69
2023-05-01T19:55:04.743Z,58.77
2023-05-01T19:57:30.952Z,59.75
2023-05-01T19:59:58.210Z,63.49
2023-05-01T20:02:24.894Z,65.57
2023-05-01T20:04:51.151Z,68.53
2023-05-01T20:07:18.486Z,71.83
2023-05-01T20:09:45.242Z,72.06
2023-05-01T20:12:11.632Z,76.60
2023-05-01T20:14:37.683Z,81.98
2023-05-01T20:17:05.538Z,81.28
2023-05-01T20:19:31.939Z,81.43
2023-05-01T20:21:58.052Z,80.68
2023-05-01T20:24:24.347Z,79.34
2023-05-01T20:26:53.216Z,80.17
2023-05-01T20:29:19.861Z,81.26
2023-05-01T20:31:45.924Z,85.30
2023-05-01T20:34:11.989Z,80.78
2023-05-01T20:36:38.100Z,87.21
2023-05-01T20:39:04.157Z,86.08
2023-05-01T20:41:30.244Z,83.06
2023-05-01T20:43:56.354Z,84.81
2023-05-01T20:46:22.974Z,81.56
2023-05-01T20:48:49.155Z,87.57
2023-05-01T20:51:15.597Z,85.86
2023-05-01T20:53:41.707Z,92.57
2023-05-01T20:56:07.773Z,95.76
2023-05-01T20:58:34.900Z,97.31
2023-05-01T21:01:01.113Z,95.10
2023-05-01T21:03:27.297Z,96.24
2023-05-01T21:06:00.334Z,96.94
2023-05-01T21:08:26.854Z,90.77
2023-05-01T21:10:53.081Z,90.17
2023-05-01T21:13:20.566Z,91.33
2023-05-01T21:15:46.990Z,91.35
2023-05-01T21:18:14.710Z,95.90
2023-05-01T21:20:41.897Z,87.74
2023-05-01T21:23:08.121Z,91.65
2023-05-01T21:25:34.217Z,87.39
2023-05-01T21:28:02.541Z,88.46
2023-05-01T21:30:30.929Z,92.61
2023-05-01T21:32:57.672Z,96.80
2023-05-01T21:35:27.299Z,92.41
2023-05-01T21:37:53.396Z,88.60
2023-05-01T21:40:19.687Z,88.58
2023-05-01T21:42:45.992Z,87.74
2023-05-01T21:45:13.502Z,94.20
2023-05-01T21:47:41.741Z,91.92
2023-05-01T21:50:11.014Z,89.83
2023-05-01T21:52:37.121Z,92.49
2023-05-01T21:55:03.704Z,91.09
2023-05-01T21:57:31.078Z,87.84
2023-05-01T21:59:58.363Z,88.95
2023-05-01T22:02:26.854Z,90.93
2023-05-01T22:04:55.712Z,86.15
2023-05-01T22:07:21.761Z,85.74
2023-05-01T22:09:47.825Z,83.64
2023-05-01T22:12:13.913Z,81.94
2023-05-01T22:14:47.101Z,82.11
2023-05-01T22:17:14.162Z,83.22
2023-05-01T22:19:40.597Z,84.57
2023-05-01T22:22:06.639Z,84.22
2023-05-01T22:24:34.412Z,86.78
2023-05-01T22:27:01.924Z,84.05
2023-05-01T22:29:27.966Z,84.49
2023-05-01T22:31:54.046Z,82.12
2023-05-01T22:34:20.358Z,82.43
2023-05-01T22:36:46.434Z,82.44
2023-05-01T22:39:12.772Z,85.03
2023-05-01T22:41:38.818Z,84.00
2023-05-01T22:44:05.705Z,86.06
2023-05-01T22:46:31.830Z,87.78
2023-05-01T22:49:00.544Z,84.45
2023-05-01T22:51:26.760Z,85.14
2023-05-01T22:53:52.834Z,84.89
2023-05-01T22:56:19.172Z,86.05
2023-05-01T22:58:45.208Z,85.77
2023-05-01T23:01:11.404Z,86.50
2023-05-01T23:03:38.948Z,85.39
2023-05-01T23:06:07.826Z,90.81
2023-05-01T23:08:34.015Z,86.85
2023-05-01T23:11:00.138Z,85.28
2023-05-01T23:13:27.413Z,90.12
2023-05-01T23:15:53.700Z,91.18
2023-05-01T23:18:25.044Z,89.08
2023-05-01T23:20:51.772Z,87.03
2023-05-01T23:23:19.583Z,87.40
2023-05-01T23:25:48.208Z,87.15
2023-05-01T23:28:19.631Z,87.21
2023-05-01T23:30:52.393Z,88.58
2023-05-01T23:33:20.834Z,87.67
2023-05-01T23:35:47.549Z,87.77
2023-05-01T23:38:13.641Z,91.11
2023-05-01T23:40:39.949Z,88.37
2023-05-01T23:43:06.051Z,89.69
2023-05-01T23:45:32.970Z,90.17
2023-05-01T23:47:59.115Z,89.04
2023-05-01T23:50:25.476Z,89.65
2023-05-01T23:52:51.674Z,90.08
2023-05-01T23:55:17.729Z,91.06
2023-05-01T23:57:43.812Z,89.69
